Timeline UpdatesTrip UpdatesNews PostsPvt PostsTravel TipsAdmin PostsConv PostsFollowed PostsChat RequestsBlog PostsPNR Posts

Disclaimer
Search
 
 
Thu Jul 31, 2014 04:50:41 ISTHomeTrainsΣChainsAtlasPNRForumGalleryNewsFAQTripsMembersLoginFeedback
No Recent News for this Train
Other Trains in the News **new
Latest...
.
Wed Jul 25, 2012 (05:18PM)
⇐ Return Journey: Train# 57274

57273/Hubli - Tirupati InterCity Passenger

Feb 22 2014 (9:23PM)
Change Departure Station:
Change Arrival Station:
Post a Train Travel TipPost a Train Travel Tip **new
Post a Comment/Question/Picture/VideoPost a Comment/Question/Picture/Video
Pantry/Catering
✕ NO Pantry Car
✕ NO Catering
RSA - Rake Sharing
57257/58 TPTY-COA Passenger
Rake/Coach Composition
LOCO-SLR-GS-GS-GS-GS-GS-GS-GS-S2-S1-GS-GS-GS-GS-GS-SLR
Loco
UBL - GTL --> GTL WDM 2B GTL-TPTY --> WAP/WAM
News    PNR    Forum    Time-Table    Availability    Fare Chart    Map    Arr/Dep History    Trips    Gallery    ΣChains    X/O    Timeline    
Travel Time: 8h 20m    39 halts    Distance: 319 km    Avg Speed: 38 km/hr
Type: Passenger
Zone: SCR/South Central
Departs @ 12:40 (Avg 41m late)
Platform# ???
SMTWTFS
Guntakal Junction/GTL 
Arrives @ 21:00 (Avg 35m late)
Platform# 5
SMTWTFS
Tirupati Main/TPTY 

39 halts. 42 intermediate Stations between Guntakal Junction and Tirupati Main

Show ALL intermediate Stations  Show Old Time-Table

#CodeStation NameX/OArrivesAvgDepartsAvgHaltPFDay#KmSpeedElevZoneAddress
1UBLHubli Junction (5)  -06:00+121-257.851640mSWRHubli - 580020, Karnataka
2SVHESisvinhalli  06:27-06:28-1m--1-235.0121594mSWRState Highway 28, Karnataka
3NGRAnnigeri (2)  06:34+1206:35+121m--1-222.971634mSWRDist. Dharwad, Karnataka
4LKTHulkoti  06:44+1706:45+181m--1-212.326654mSWRNational Highway 63, Karnataka
5GDGGadag Junction (3)X  07:13+1007:15+152m--1-200.054655mSWRGadag GDG jn pnts. UBL/BAY/SUR, Karnataka
6BNPBhanapurX  08:05+1908:10+245m--1-155.158561mSWRNational Highway 63, Karnataka
7KBLKoppal (1)  08:23+2508:25+282m11-142.651526mSWRKoppal, Karnataka
8GINGinigera  08:38+2908:40+302m--1-131.549511mSWRGinigera, Karnataka
9MRBMunirabad (1)  08:53+3108:55+312m11-120.820470mSWRMunirabad, Karnataka
10HPTHospet Junction (3)  09:13+2509:15+282m11-114.750472mSWRHospet, Karnataka
11TNGLToranagallu (3)  09:54+2509:55+261m--1-82.569473mSWRToranagallu, Karnataka
12DAJDuroji  10:00+3010:05+255m--1-76.832467mSWRBellary, Karnataka
13BYCBellary Cantt. (1)X10:48+010:49+21m11-53.513469mSWRBellary, Karnataka
14BAYBellary Junction (3)  11:05+411:10+75m--1-50.047458mSWRBellary, Karnataka
15HDDHaddinagundu  11:18+1911:19+201m--1-43.750433mSCRNational Highway 63, Karnataka
16HGIHagari  11:27+2111:28+211m--1-37.165413mSCRNational Highway 63, Karnataka
17VPVirapur  11:37+2311:38+231m--1-27.350427mSCRAnantapur, Andhra Pradesh
18TKBNTsakibanda  11:44-11:45-1m--1-22.357431mSCRRayalaseema Region, Andhra Pradesh
19BNLBevinahalu  11:49+2611:50+261m--1-18.558428mSCRRayalaseema Region, Andhra Pradesh
20BLLBantanahalX  11:57+3111:58+321m--1-11.826445mSCRRayalaseema Region, Andhra Pradesh
21GTL»Guntakal Junction (6)»12:25+3312:40+4115m--10.028453mSCRGuntakal. Tel: 08552-227131/32, Andhra Pradesh
22TIMTimmanacherla  12:47+5012:48+501m--13.277434mSCRGuntakal, Andhra Pradesh
23NKDONakkanadoddiX  12:55+5312:56+531m--112.258391mSCRRayalaseema Region, Andhra Pradesh
24PLUPatakottacheruvu  13:01+5513:02+551m--117.058381mSCRRayalaseema Region, Andhra Pradesh
25GYGooty Junction (2)X  13:14+1:0013:15+1:081m--128.565370mSCRNH 7 Anantapur District, Andhra Pradesh
26JKOJakkalacheruvu  13:26+1:1713:27+1:171m--140.478334mSCRRayalaseema Region, Andhra Pradesh
27RLORayala Cheruvu (2)X  13:36+1:2013:37+1:201m--152.138292mSCRRayalacheruvu, Andhra Pradesh
28VMLVemulapadu  13:46+1:2013:47+1:201m--157.954269mSCRSH 57, Andhra Pradesh
29JURJutturu  13:54+1:2313:55+1:241m--164.254260mSCRTadipatri, Andhra Pradesh
30KMQAKomali  14:02+1:2514:03+1:251m--170.534246mSCRPappuru Rd, Andhra Pradesh
31TUTadipatri (3)14:14+1:1014:15+1:111m--176.668243mSCRAnantapuram Dist, Andhra Pradesh
32CLPEChallavaripalli  14:21+1:2914:22+1:301m--183.552229mSCRYallanur Rd, Andhra Pradesh
33VRNVanganur  14:29+1:3214:30+1:321m--189.571222mSCRRayalaseema Region, Andhra Pradesh
34RLLRegadipalli  14:36+1:3614:37+1:361m--196.618223mSCRKadapa (YSR District), Andhra Pradesh
35KDPKondapuram (2)X  15:04+1:1815:05+1:281m--1104.761214mSCRKadapa (YSR District), Andhra Pradesh
36MUMMangapatnam  15:14+1:3315:15+1:331m--1113.862218mSCRKadapa (YSR District), Andhra Pradesh
37MOOMuddanuru (3)  15:29+1:3115:30+1:311m--1128.357194mSCRKadapa (YSR District), Andhra Pradesh
38KMHKalamalia  15:39+1:3615:40+1:361m--1136.965178mSCRKadapa (YSR District), Andhra Pradesh
39YAYerraguntla (2)X  15:47+1:2915:48+1:301m--1144.557171mSCRKadapa / Cuddapah (YSR District), Andhra Pradesh
40YGDYerragudipad  15:57+1:4315:58+1:441m--1153.038149mSCRKadapa (YSR District), Andhra Pradesh
41KKMKamalapuram (2)  16:09+1:4516:10+1:451m--1160.070141mSCRKadapa (YSR District), Andhra Pradesh
42GPYGangayapalle  16:16+1:5016:17+1:511m--1166.970137mSCRKadapa (YSR District), Andhra Pradesh
43KPUKrishnapuram  16:25+1:5516:26+1:551m--1176.212133mSCRKadapa (YSR District), Andhra Pradesh
44HXKadapa (3)X  17:04+1:0617:05+1:121m11183.660146mSCRCuddapah, Andhra Pradesh
45KNLPKanamalo Palle  17:16+1:3717:17+1:381m--1194.648188mSCRKadapa (YSR District), Andhra Pradesh
46BKPTBhakarapet  17:24+1:3917:25+1:391m--1200.249145mSCRKadapa (YSR District), Andhra Pradesh
47VNMOntimitta (2)  17:32+1:3917:33+1:411m--1205.972134mSCRKadapa (YSR District), Andhra Pradesh
48MMPLMantapampalle (1)  17:42+1:4317:43+1:441m11216.828154mSCRKadapa (YSR District), Andhra Pradesh
49NRENandalurX  17:59+1:4018:00+1:411m--1224.136143mSCRRayalaseema Region, Andhra Pradesh
50HAQHastavaram  18:09+1:3918:10+1:391m--1229.638143mSCRKadapa (YSR District), Andhra Pradesh
51RJPRazampeta (2)  18:18+1:3818:19+1:391m--1234.761144mSCRKadapa (YSR District), Andhra Pradesh
52PMTPullampet  18:28+1:4618:29+1:471m--1243.846159mSCRKadapa (YSR District), Andhra Pradesh
53RPLReddipalle  18:34-18:35-1m--1247.663175mSCRDr. Y.S. Rajasekhar Reddy, Andhra Pradesh
54OBVPObulavaripalli (2)  18:42+1:4818:43+1:491m--1255.059191mSCRRayalaseema Region, Andhra Pradesh
55ANEAnantarajupet  18:49+1:5118:50+1:521m--1260.963197mSCRRayalaseema Region, Andhra Pradesh
56KOUKoduru (2)  18:57+1:5618:58+1:571m--1268.262215mSCRKadapa (YSR District), Andhra Pradesh
57SFSettigunta  19:07+2:0019:08+2:001m--1277.539214mSCRCoastal Andhra Region, Andhra Pradesh
58BLPEBalapalleX  19:19+1:5819:20+2:001m--1284.774246mSCRGangurajupodu, Andhra Pradesh
59MRMMamanduru  19:28+2:0919:29+2:141m--1294.619177mSCRChittoor, Andhra Pradesh
60RURenigunta Junction (5)X  20:15+1:2020:20+1:225m--1309.115113mSCRChittoor District, Andhra Pradesh
61TPTY•Tirupati Main (5)•  21:00+35-51319.0-150mSCRChittoor Distt, Andhra Pradesh
Scroll to Top
Scroll to Bottom